Time;durP1;ratioP1;P1;durP2;ratioP2;P2;SDS_P1;SDS_P2;PMS_P1;PMS_P2;Temp;Humidity;BMP_temperature;BMP_pressure;BME280_temperature;BME280_humidity;BME280_pressure;Samples;Min_cycle;Max_cycle;Signal;HPM_P1;HPM_P2
2024/01/13 00:02:03;;;;;;;;;53.67;29.00;;;;;2.50;69.93;102460.47;5026403;28;71704;-64
2024/01/13 00:04:28;;;;;;;;;54.25;30.50;;;;;2.43;69.89;102464.56;5030723;28;45981;-64
2024/01/13 00:06:54;;;;;;;;;23.75;14.25;;;;;2.41;70.05;102463.66;5036316;28;45331;-64
2024/01/13 00:09:19;;;;;;;;;46.67;32.67;;;;;2.40;69.94;102462.75;5035067;28;64636;-65
2024/01/13 00:11:44;;;;;;;;;37.00;30.67;;;;;2.38;70.23;102451.47;5029543;28;71935;-65
2024/01/13 00:14:10;;;;;;;;;55.25;37.50;;;;;2.36;70.13;102455.72;5025118;28;45382;-65
2024/01/13 00:16:35;;;;;;;;;46.50;33.00;;;;;2.37;70.44;102457.47;5013292;28;48823;-64
2024/01/13 00:19:01;;;;;;;;;53.25;39.25;;;;;2.36;70.61;102447.09;5036412;28;45412;-64
2024/01/13 00:21:26;;;;;;;;;52.25;33.75;;;;;2.38;70.69;102438.56;5026271;28;45309;-65
2024/01/13 00:23:51;;;;;;;;;53.25;35.75;;;;;2.41;70.84;102428.34;5037044;28;75034;-64
2024/01/13 00:26:16;;;;;;;;;55.00;29.67;;;;;2.44;70.36;102428.44;5032759;28;72186;-64
2024/01/13 00:28:42;;;;;;;;;42.00;34.25;;;;;2.37;70.51;102423.88;5032996;28;68756;-63
2024/01/13 00:31:07;;;;;;;;;43.75;35.50;;;;;2.32;70.65;102416.81;5037704;28;66883;-63
2024/01/13 00:33:33;;;;;;;;;45.00;29.25;;;;;2.34;70.69;102421.22;5006628;28;48062;-64
2024/01/13 00:35:58;;;;;;;;;45.50;38.25;;;;;2.33;71.16;102419.44;5029865;28;73105;-63
2024/01/13 00:38:23;;;;;;;;;56.25;33.75;;;;;2.38;71.14;102417.03;5034410;28;45451;-64
2024/01/13 00:40:49;;;;;;;;;43.00;33.75;;;;;2.40;71.07;102416.22;5017147;28;72913;-63
2024/01/13 00:43:14;;;;;;;;;35.00;25.00;;;;;2.43;70.65;102423.22;5035195;28;75453;-64
2024/01/13 00:45:39;;;;;;;;;49.33;37.33;;;;;2.42;70.67;102427.50;5013460;28;61967;-64
2024/01/13 00:48:06;;;;;;;;;39.00;21.50;;;;;2.36;70.55;102427.31;5012299;28;68327;-63
2024/01/13 00:50:32;;;;;;;;;42.25;28.25;;;;;2.33;70.69;102418.56;5032934;28;45322;-63
2024/01/13 00:52:58;;;;;;;;;40.00;22.75;;;;;2.30;70.38;102423.63;5024754;28;45928;-63
2024/01/13 00:55:23;;;;;;;;;47.00;30.25;;;;;2.23;70.71;102418.25;5026794;28;45427;-63
2024/01/13 00:57:49;;;;;;;;;58.33;33.33;;;;;2.20;70.71;102417.28;5033244;28;66479;-65
2024/01/13 01:00:14;;;;;;;;;47.00;36.33;;;;;2.22;71.06;102410.47;5027371;28;66835;-64
2024/01/13 01:02:39;;;;;;;;;49.25;29.25;;;;;2.27;71.07;102417.53;5031607;28;46000;-64
2024/01/13 01:05:05;;;;;;;;;48.33;29.67;;;;;2.33;71.05;102416.00;5029995;28;73049;-64
2024/01/13 01:07:32;;;;;;;;;46.25;32.25;;;;;2.37;70.96;102413.53;5034783;28;45409;-63
2024/01/13 01:09:57;;;;;;;;;47.00;29.50;;;;;2.42;71.00;102416.28;5030167;28;45385;-63
2024/01/13 01:12:22;;;;;;;;;48.67;34.67;;;;;2.46;70.85;102420.72;5023331;28;73675;-65
2024/01/13 01:14:48;;;;;;;;;35.50;25.75;;;;;2.46;70.54;102407.81;5032581;28;45396;-65
2024/01/13 01:17:13;;;;;;;;;46.33;30.33;;;;;2.43;70.69;102412.91;5036540;28;59557;-65
2024/01/13 01:19:38;;;;;;;;;34.50;27.00;;;;;2.37;70.30;102413.53;5035526;28;45461;-65
2024/01/13 01:22:04;;;;;;;;;42.25;24.50;;;;;2.27;71.47;102408.91;5036402;28;62323;-65
2024/01/13 01:24:29;;;;;;;;;35.25;25.50;;;;;2.22;70.72;102411.31;5033313;28;45242;-65
2024/01/13 01:26:54;;;;;;;;;37.50;24.25;;;;;2.14;70.35;102407.59;5037235;28;63130;-65
2024/01/13 01:29:20;;;;;;;;;41.00;28.33;;;;;2.05;70.36;102403.00;5025633;28;69521;-65
2024/01/13 01:31:45;;;;;;;;;38.50;27.00;;;;;1.98;70.61;102405.31;5027955;28;45977;-65
2024/01/13 01:34:10;;;;;;;;;36.00;20.33;;;;;1.89;70.60;102405.84;5032473;28;72793;-65
2024/01/13 01:36:36;;;;;;;;;36.00;22.25;;;;;1.85;70.83;102417.78;5018977;28;45387;-66
2024/01/13 01:39:01;;;;;;;;;42.00;19.25;;;;;1.78;70.96;102418.38;5014239;28;45316;-65
2024/01/13 01:41:27;;;;;;;;;44.50;24.50;;;;;1.76;71.49;102409.69;5032995;28;46090;-64
2024/01/13 01:43:52;;;;;;;;;45.75;25.25;;;;;1.80;71.54;102413.28;5022810;28;45432;-65
2024/01/13 01:46:19;;;;;;;;;38.33;29.00;;;;;1.85;71.80;102414.31;5025588;28;66421;-65
2024/01/13 01:48:45;;;;;;;;;33.00;23.50;;;;;1.91;71.82;102417.09;5036475;28;45576;-65
2024/01/13 01:51:11;;;;;;;;;40.75;24.25;;;;;1.94;71.48;102416.34;5025595;28;45642;-65
2024/01/13 01:53:37;;;;;;;;;140.75;105.25;;;;;1.98;71.94;102411.34;5009978;28;45540;-65
2024/01/13 01:56:10;;;;;;;;;55.25;38.25;;;;;2.00;71.25;102407.13;5020536;28;54971;-64
2024/01/13 01:58:36;;;;;;;;;46.75;28.00;;;;;1.99;71.56;102404.50;5025820;28;45456;-65
2024/01/13 02:01:02;;;;;;;;;40.25;29.00;;;;;1.99;71.47;102401.91;5018102;28;71044;-65
2024/01/13 02:03:28;;;;;;;;;25.00;18.50;;;;;1.96;71.21;102394.06;5011982;28;45284;-64
2024/01/13 02:05:55;;;;;;;;;44.25;24.75;;;;;1.94;71.20;102400.88;5025644;28;67473;-64
2024/01/13 02:08:20;;;;;;;;;27.00;27.00;;;;;1.87;71.33;102398.06;5025873;28;45549;-64
2024/01/13 02:10:46;;;;;;;;;39.75;27.75;;;;;1.82;71.42;102406.47;5031423;28;46320;-64
2024/01/13 02:13:11;;;;;;;;;31.25;27.75;;;;;1.77;71.38;102397.66;5038271;28;45400;-67
2024/01/13 02:15:36;;;;;;;;;35.75;25.25;;;;;1.72;71.52;102397.53;5022396;28;55547;-65
2024/01/13 02:18:02;;;;;;;;;43.67;27.33;;;;;1.70;71.77;102397.47;5018079;28;69228;-66
2024/01/13 02:20:27;;;;;;;;;70.25;45.25;;;;;1.71;72.00;102386.28;5032053;28;48860;-65
2024/01/13 02:22:52;;;;;;;;;44.00;35.00;;;;;1.73;72.09;102400.97;5021821;28;70491;-66
2024/01/13 02:25:18;;;;;;;;;36.67;19.00;;;;;1.73;72.01;102388.06;5021902;28;69353;-66
2024/01/13 02:27:44;;;;;;;;;30.75;23.50;;;;;1.75;72.61;102395.03;5033404;28;45452;-65
2024/01/13 02:30:09;;;;;;;;;42.67;25.00;;;;;1.79;72.49;102386.59;5028589;28;75639;-65
2024/01/13 02:32:35;;;;;;;;;42.75;28.25;;;;;1.84;72.42;102385.06;5033101;28;46690;-66
2024/01/13 02:35:00;;;;;;;;;35.00;24.33;;;;;1.90;72.51;102386.97;5033178;28;68285;-66
2024/01/13 02:37:25;;;;;;;;;47.50;33.25;;;;;1.95;72.04;102385.44;5032486;28;45419;-66
2024/01/13 02:39:51;;;;;;;;;45.33;27.00;;;;;1.93;72.26;102373.28;5036600;28;74370;-66
2024/01/13 02:42:16;;;;;;;;;23.00;16.50;;;;;1.89;71.90;102383.53;5037845;28;45411;-66
2024/01/13 02:44:41;;;;;;;;;39.25;24.00;;;;;1.86;71.88;102370.50;5032955;28;66653;-66
2024/01/13 02:47:07;;;;;;;;;31.33;23.67;;;;;1.85;72.23;102379.06;5022974;28;72495;-65
2024/01/13 02:49:32;;;;;;;;;31.33;22.67;;;;;1.90;71.96;102379.22;5031957;28;75642;-66
2024/01/13 02:51:57;;;;;;;;;31.67;21.00;;;;;1.92;71.98;102385.31;5038642;28;66522;-66
2024/01/13 02:54:23;;;;;;;;;34.33;23.00;;;;;1.95;71.96;102377.69;5026436;28;62070;-66
2024/01/13 02:56:48;;;;;;;;;31.25;19.75;;;;;1.99;72.12;102376.97;5023097;28;45507;-65
2024/01/13 02:59:14;;;;;;;;;33.75;23.75;;;;;2.01;72.10;102371.84;5029572;28;75786;-64
2024/01/13 03:01:39;;;;;;;;;31.00;22.50;;;;;2.07;71.93;102372.06;5038763;28;45215;-64
2024/01/13 03:04:06;;;;;;;;;31.75;22.00;;;;;2.13;71.81;102361.94;5029547;28;45221;-65
2024/01/13 03:06:32;;;;;;;;;32.25;22.00;;;;;2.16;71.64;102349.16;5026476;28;46547;-64
2024/01/13 03:08:57;;;;;;;;;57.75;36.50;;;;;2.21;71.55;102354.44;5023603;28;46227;-65
2024/01/13 03:11:22;;;;;;;;;34.33;21.67;;;;;2.22;71.60;102348.47;5033986;28;73626;-65
2024/01/13 03:13:48;;;;;;;;;34.75;20.00;;;;;2.24;71.43;102346.81;5027623;28;45784;-65
2024/01/13 03:16:14;;;;;;;;;32.50;23.75;;;;;2.27;71.36;102346.91;5019050;28;45682;-66
2024/01/13 03:18:39;;;;;;;;;31.25;21.00;;;;;2.33;71.59;102336.78;5039575;28;46158;-66
2024/01/13 03:21:05;;;;;;;;;31.25;20.25;;;;;2.37;71.31;102340.34;5037871;28;70164;-66
2024/01/13 03:23:30;;;;;;;;;30.50;20.75;;;;;2.39;71.18;102337.00;5030615;28;45316;-65
2024/01/13 03:25:56;;;;;;;;;32.25;21.25;;;;;2.42;71.20;102333.63;5034824;28;61624;-65
2024/01/13 03:28:22;;;;;;;;;24.00;17.00;;;;;2.44;70.70;102330.28;5032650;28;52225;-65
2024/01/13 03:30:47;;;;;;;;;33.25;17.50;;;;;2.47;70.95;102324.31;5038876;28;45491;-65
2024/01/13 03:33:12;;;;;;;;;29.75;19.00;;;;;2.50;70.77;102318.34;5036621;28;69166;-67
2024/01/13 03:35:38;;;;;;;;;33.75;19.25;;;;;2.50;70.52;102308.91;5036368;28;58420;-65
2024/01/13 03:38:03;;;;;;;;;31.33;17.67;;;;;2.51;70.54;102310.66;5020547;28;75609;-65
2024/01/13 03:40:28;;;;;;;;;23.50;17.50;;;;;2.50;70.46;102308.91;5034973;28;45399;-65
2024/01/13 03:42:54;;;;;;;;;28.75;17.25;;;;;2.47;70.23;102313.97;5034603;28;63336;-65
2024/01/13 03:45:19;;;;;;;;;29.25;16.50;;;;;2.42;70.13;102306.06;5034964;28;45258;-65
2024/01/13 03:47:44;;;;;;;;;25.00;13.25;;;;;2.38;70.24;102293.88;5030573;28;71193;-65
2024/01/13 03:50:10;;;;;;;;;30.75;17.75;;;;;2.34;70.20;102289.47;5023686;28;58384;-65
2024/01/13 03:52:35;;;;;;;;;29.00;19.00;;;;;2.30;70.13;102281.53;5031837;28;68138;-65
2024/01/13 03:55:01;;;;;;;;;24.50;17.50;;;;;2.29;70.14;102278.09;5035857;28;45468;-65
2024/01/13 03:57:26;;;;;;;;;32.75;20.25;;;;;2.29;70.33;102275.50;5024993;28;46215;-64
2024/01/13 03:59:51;;;;;;;;;21.00;12.00;;;;;2.27;70.15;102280.63;5033098;28;73165;-65
2024/01/13 04:02:17;;;;;;;;;29.00;19.00;;;;;2.22;69.94;102284.75;5037641;28;45310;-65
2024/01/13 04:04:42;;;;;;;;;22.50;14.00;;;;;2.19;69.96;102284.66;5032553;28;63246;-66
2024/01/13 04:07:08;;;;;;;;;93.25;70.00;;;;;2.14;69.61;102280.19;5034774;28;75428;-65
2024/01/13 04:09:34;;;;;;;;;128.75;103.75;;;;;2.05;69.52;102288.50;5035925;28;45313;-65
2024/01/13 04:11:59;;;;;;;;;24.75;17.50;;;;;2.00;69.95;102280.63;5040444;28;45352;-64
2024/01/13 04:14:24;;;;;;;;;20.75;15.25;;;;;1.97;69.85;102279.63;5034349;28;45285;-65
2024/01/13 04:16:50;;;;;;;;;22.33;12.67;;;;;1.94;69.94;102276.94;5026485;28;73536;-65
2024/01/13 04:19:15;;;;;;;;;28.00;15.50;;;;;1.93;69.83;102272.59;5033480;28;61207;-65
2024/01/13 04:21:41;;;;;;;;;20.75;18.00;;;;;1.91;69.81;102262.22;5034591;28;45262;-65
2024/01/13 04:24:07;;;;;;;;;21.50;16.25;;;;;1.92;69.90;102261.41;5035765;28;45487;-66
2024/01/13 04:26:32;;;;;;;;;18.25;16.00;;;;;1.92;70.13;102261.41;5027351;28;45439;-65
2024/01/13 04:28:58;;;;;;;;;24.25;17.00;;;;;1.92;69.98;102256.25;5035073;28;73327;-66
2024/01/13 04:31:23;;;;;;;;;23.00;14.50;;;;;1.87;70.01;102262.94;5037904;28;45217;-65
2024/01/13 04:33:48;;;;;;;;;22.50;11.00;;;;;1.84;70.35;102266.31;5028680;28;71529;-67
2024/01/13 04:36:14;;;;;;;;;23.00;17.50;;;;;1.86;70.53;102275.00;5028102;28;46412;-65
2024/01/13 04:38:39;;;;;;;;;34.25;20.50;;;;;1.90;70.64;102265.63;5031799;28;45351;-65
2024/01/13 04:41:04;;;;;;;;;36.75;21.00;;;;;1.95;70.78;102269.25;5036360;28;45343;-66
2024/01/13 04:43:30;;;;;;;;;23.67;16.67;;;;;1.99;70.47;102265.94;5021454;28;69267;-66
2024/01/13 04:45:56;;;;;;;;;30.25;18.50;;;;;2.05;70.70;102267.84;5036715;28;45527;-66
2024/01/13 04:48:21;;;;;;;;;37.00;19.75;;;;;2.10;70.46;102266.28;5035361;28;45672;-66
2024/01/13 04:50:47;;;;;;;;;27.50;20.00;;;;;2.14;70.32;102267.25;5027357;28;69300;-66
2024/01/13 04:53:12;;;;;;;;;35.33;24.67;;;;;2.19;70.60;102263.13;5028051;28;73326;-66
2024/01/13 04:55:37;;;;;;;;;75.75;55.50;;;;;2.20;70.55;102250.25;5026659;28;47075;-67
2024/01/13 04:58:03;;;;;;;;;22.50;19.00;;;;;2.22;70.20;102251.19;5016557;28;68477;-67
2024/01/13 05:00:28;;;;;;;;;30.00;23.75;;;;;2.20;70.10;102249.41;5035015;28;45376;-66
2024/01/13 05:02:54;;;;;;;;;26.50;14.50;;;;;2.14;70.05;102251.75;5037970;28;45497;-68
2024/01/13 05:05:19;;;;;;;;;36.00;22.33;;;;;2.09;70.21;102246.47;5018456;28;72586;-66
2024/01/13 05:07:45;;;;;;;;;25.33;18.33;;;;;2.08;70.44;102245.56;5026769;28;73141;-67
2024/01/13 05:10:11;;;;;;;;;25.75;19.25;;;;;2.08;70.59;102235.25;5026837;28;69714;-66
2024/01/13 05:12:36;;;;;;;;;21.75;17.00;;;;;2.12;70.75;102237.94;5034446;28;61319;-66
2024/01/13 05:15:01;;;;;;;;;32.67;17.00;;;;;2.15;70.84;102238.03;5030103;28;73509;-67
2024/01/13 05:17:27;;;;;;;;;28.00;21.25;;;;;2.17;70.80;102233.78;5038393;28;45429;-65
2024/01/13 05:19:52;;;;;;;;;28.67;19.33;;;;;2.17;70.80;102229.50;5038727;28;67702;-65
2024/01/13 05:22:18;;;;;;;;;31.00;19.75;;;;;2.18;70.62;102226.09;5029638;28;64904;-65
2024/01/13 05:24:43;;;;;;;;;27.00;19.75;;;;;2.19;70.75;102225.25;5030495;28;72364;-66
2024/01/13 05:27:08;;;;;;;;;34.00;21.25;;;;;2.24;70.59;102226.28;5034547;28;45772;-66
2024/01/13 05:29:34;;;;;;;;;24.00;14.00;;;;;2.26;70.48;102211.69;5035991;28;68136;-66
2024/01/13 05:31:59;;;;;;;;;25.33;17.33;;;;;2.19;70.04;102209.75;5036757;28;71239;-66
2024/01/13 05:34:24;;;;;;;;;25.25;16.00;;;;;2.13;70.13;102217.34;5035219;28;61722;-66
2024/01/13 05:36:49;;;;;;;;;29.67;13.00;;;;;2.10;70.22;102214.63;5032028;28;72030;-67
2024/01/13 05:39:15;;;;;;;;;30.00;21.00;;;;;2.08;70.39;102204.25;5037401;28;68220;-67
2024/01/13 05:41:40;;;;;;;;;51.33;37.00;;;;;2.09;70.34;102205.16;5030652;28;69757;-67
2024/01/13 05:44:05;;;;;;;;;29.75;18.25;;;;;2.04;69.86;102202.41;5013617;28;46004;-65
2024/01/13 05:46:31;;;;;;;;;33.33;17.67;;;;;2.03;70.16;102207.53;5021009;28;72851;-67
2024/01/13 05:48:56;;;;;;;;;26.67;18.00;;;;;2.03;70.28;102212.69;5029512;28;68988;-67
2024/01/13 05:51:22;;;;;;;;;23.00;17.00;;;;;2.01;69.96;102199.72;5026564;28;68300;-66
2024/01/13 05:53:47;;;;;;;;;25.25;14.50;;;;;1.98;69.89;102204.78;5039308;28;45339;-67
2024/01/13 05:56:12;;;;;;;;;27.00;16.33;;;;;1.92;70.00;102199.44;5037731;28;70006;-67
2024/01/13 05:58:39;;;;;;;;;28.00;18.33;;;;;1.93;69.92;102193.47;5018373;28;69709;-67
2024/01/13 06:01:04;;;;;;;;;22.25;14.50;;;;;1.94;69.98;102189.16;5033296;28;45458;-67
2024/01/13 06:03:30;;;;;;;;;23.50;19.25;;;;;1.93;69.84;102190.88;5037015;28;50695;-66
2024/01/13 06:05:55;;;;;;;;;24.67;15.67;;;;;1.89;69.72;102192.50;5035585;28;71948;-66
2024/01/13 06:08:21;;;;;;;;;27.75;14.25;;;;;1.84;69.98;102186.31;5039369;28;45422;-66
2024/01/13 06:10:46;;;;;;;;;20.50;13.00;;;;;1.81;70.09;102180.16;5034171;28;45459;-66
2024/01/13 06:13:11;;;;;;;;;25.67;17.00;;;;;1.79;70.17;102171.47;5028560;28;75856;-67
2024/01/13 06:15:37;;;;;;;;;26.75;19.75;;;;;1.75;70.22;102173.06;5037693;28;70538;-67
2024/01/13 06:18:02;;;;;;;;;29.75;21.75;;;;;1.74;70.26;102170.47;5036580;28;49391;-66
2024/01/13 06:20:28;;;;;;;;;33.25;25.00;;;;;1.77;70.79;102175.72;5029607;28;45465;-66
2024/01/13 06:22:53;;;;;;;;;21.50;16.25;;;;;1.79;70.12;102166.31;5024601;28;62360;-66
2024/01/13 06:25:18;;;;;;;;;25.00;18.33;;;;;1.76;70.17;102168.81;5034150;28;73246;-66
2024/01/13 06:27:44;;;;;;;;;10.33;9.00;;;;;1.73;70.51;102172.16;5041805;28;69379;-67
2024/01/13 06:30:10;;;;;;;;;22.75;16.00;;;;;1.75;70.34;102164.47;5032635;28;45215;-67
2024/01/13 06:32:36;;;;;;;;;31.50;20.25;;;;;1.74;70.37;102166.19;5033952;28;46578;-67
2024/01/13 06:35:01;;;;;;;;;23.00;15.50;;;;;1.69;70.30;102168.59;5030890;28;45226;-67
2024/01/13 06:37:27;;;;;;;;;25.50;19.75;;;;;1.60;70.06;102152.81;5035644;28;45258;-67
2024/01/13 06:39:52;;;;;;;;;27.00;15.75;;;;;1.55;70.29;102162.09;5032011;28;73526;-67
2024/01/13 06:42:17;;;;;;;;;21.50;17.25;;;;;1.51;70.65;102170.59;5013106;28;46843;-68
2024/01/13 06:44:43;;;;;;;;;27.00;13.25;;;;;1.48;70.32;102176.50;5020228;28;72719;-67
2024/01/13 06:47:08;;;;;;;;;24.25;19.00;;;;;1.46;70.75;102170.41;5010695;28;54601;-66
2024/01/13 06:49:33;;;;;;;;;20.50;15.75;;;;;1.45;71.19;102178.09;5041913;28;45461;-67
2024/01/13 06:51:59;;;;;;;;;51.50;41.75;;;;;1.46;71.22;102180.75;5022024;28;49671;-67
2024/01/13 06:54:24;;;;;;;;;32.25;20.25;;;;;1.46;71.46;102173.00;5036910;28;45333;-67
2024/01/13 06:56:49;;;;;;;;;83.00;45.75;;;;;1.47;71.65;102176.44;5036054;28;45448;-67
2024/01/13 06:59:15;;;;;;;;;33.67;21.00;;;;;1.44;71.38;102155.72;5041101;28;72034;-67
2024/01/13 07:01:40;;;;;;;;;27.00;22.00;;;;;1.44;71.45;102161.75;5032142;28;75648;-67
2024/01/13 07:04:05;;;;;;;;;28.50;17.25;;;;;1.42;71.31;102167.69;5039769;28;45312;-67
2024/01/13 07:06:31;;;;;;;;;24.33;18.67;;;;;1.40;71.34;102165.06;5041226;28;67423;-67
2024/01/13 07:08:57;;;;;;;;;17.25;15.25;;;;;1.36;71.61;102162.31;5032703;28;71871;-68
2024/01/13 07:11:23;;;;;;;;;28.75;19.75;;;;;1.33;71.44;102158.81;5039820;28;47477;-68
2024/01/13 07:13:48;;;;;;;;;32.75;14.75;;;;;1.30;71.52;102163.00;5024023;28;45519;-68
2024/01/13 07:16:13;;;;;;;;;76.00;52.33;;;;;1.29;71.93;102162.13;5040585;28;69276;-67
2024/01/13 07:18:39;;;;;;;;;18.50;7.50;;;;;1.32;71.89;102163.91;5038210;28;45473;-67
2024/01/13 07:21:08;;;;;;;;;28.50;19.00;;;;;1.36;72.09;102167.47;5032035;28;46817;-67
2024/01/13 07:23:33;;;;;;;;;25.00;15.50;;;;;1.40;72.04;102167.66;5013252;28;45464;-66
2024/01/13 07:25:59;;;;;;;;;21.00;17.50;;;;;1.46;72.21;102146.34;5034359;28;45467;-66
2024/01/13 07:28:24;;;;;;;;;27.50;14.25;;;;;1.52;72.02;102151.69;5033686;28;45515;-67
2024/01/13 07:30:49;;;;;;;;;31.75;15.00;;;;;1.55;71.92;102153.50;5039102;28;45397;-67
2024/01/13 07:33:15;;;;;;;;;22.00;13.25;;;;;1.58;71.55;102154.47;5038608;28;66706;-68
2024/01/13 07:35:40;;;;;;;;;23.25;14.00;;;;;1.62;71.41;102150.28;5012141;28;61396;-67
2024/01/13 07:38:05;;;;;;;;;31.00;17.00;;;;;1.62;71.63;102148.59;5028697;28;69848;-67
2024/01/13 07:40:31;;;;;;;;;19.33;12.67;;;;;1.63;71.19;102147.78;5040431;28;75359;-67
2024/01/13 07:42:56;;;;;;;;;27.00;16.25;;;;;1.66;71.42;102144.41;5037105;28;62161;-67
2024/01/13 07:45:21;;;;;;;;;35.50;16.00;;;;;1.68;71.34;102148.81;5033565;28;45359;-66
2024/01/13 07:47:47;;;;;;;;;24.00;16.00;;;;;1.66;71.14;102147.84;5025693;28;73144;-67
2024/01/13 07:50:12;;;;;;;;;28.00;16.25;;;;;1.65;71.13;102138.38;5040637;28;45419;-68
2024/01/13 07:52:37;;;;;;;;;21.75;16.75;;;;;1.69;71.23;102144.50;5041370;28;45281;-67
2024/01/13 07:55:04;;;;;;;;;26.75;17.75;;;;;1.73;71.00;102135.16;5039939;28;61043;-67
2024/01/13 07:57:29;;;;;;;;;27.50;18.50;;;;;1.76;71.34;102130.09;5041134;28;45485;-67
2024/01/13 07:59:55;;;;;;;;;22.75;18.25;;;;;1.82;71.08;102130.28;5020563;28;63320;-67
2024/01/13 08:02:20;;;;;;;;;31.75;19.50;;;;;1.88;71.00;102133.06;5034132;28;45254;-68
2024/01/13 08:04:46;;;;;;;;;19.75;15.00;;;;;1.94;70.92;102130.66;5031815;28;68849;-68
2024/01/13 08:07:11;;;;;;;;;24.75;15.75;;;;;1.98;70.75;102137.66;5018324;28;45376;-68
2024/01/13 08:09:37;;;;;;;;;22.50;17.25;;;;;1.99;70.70;102129.09;5025567;28;46839;-67
2024/01/13 08:12:03;;;;;;;;;24.00;13.00;;;;;2.04;70.49;102126.69;5033650;28;45331;-68
2024/01/13 08:14:28;;;;;;;;;28.75;16.50;;;;;2.08;70.69;102121.63;5040181;28;45301;-68
2024/01/13 08:16:54;;;;;;;;;20.00;17.00;;;;;2.14;70.33;102114.91;5033823;28;45454;-69
2024/01/13 08:19:19;;;;;;;;;23.50;15.00;;;;;2.17;70.64;102115.00;5036681;28;67562;-68
2024/01/13 08:21:45;;;;;;;;;20.25;14.50;;;;;2.20;70.35;102115.97;5039937;28;45282;-68
2024/01/13 08:24:10;;;;;;;;;30.75;18.50;;;;;2.25;70.21;102116.13;5016677;28;45537;-68
2024/01/13 08:26:36;;;;;;;;;26.00;16.50;;;;;2.26;70.24;102113.53;5040214;28;45306;-69
2024/01/13 08:29:02;;;;;;;;;25.50;19.50;;;;;2.25;70.15;102109.22;5024109;28;47224;-68
2024/01/13 08:31:28;;;;;;;;;28.25;17.25;;;;;2.27;69.99;102120.47;5033351;28;45677;-68
2024/01/13 08:33:54;;;;;;;;;26.00;17.75;;;;;2.29;69.92;102115.38;5036490;28;45349;-67
2024/01/13 08:36:19;;;;;;;;;32.00;20.00;;;;;2.32;70.04;102112.88;5041211;28;72371;-67
2024/01/13 08:38:44;;;;;;;;;25.00;14.50;;;;;2.36;70.16;102111.25;5039311;28;58238;-67
2024/01/13 08:41:11;;;;;;;;;26.50;16.00;;;;;2.35;70.09;102105.19;5037239;28;45360;-67
2024/01/13 08:43:36;;;;;;;;;26.75;20.00;;;;;2.38;69.74;102113.03;5021202;28;45389;-68
2024/01/13 08:46:01;;;;;;;;;21.50;16.75;;;;;2.41;69.99;102105.38;5018762;28;45254;-68
2024/01/13 08:48:27;;;;;;;;;28.50;18.75;;;;;2.44;69.75;102115.81;5032372;28;49638;-69
2024/01/13 08:50:53;;;;;;;;;17.75;13.00;;;;;2.46;69.97;102121.00;5032975;28;45455;-69
2024/01/13 08:53:18;;;;;;;;;29.50;18.75;;;;;2.47;69.58;102120.19;5039968;28;45383;-69
2024/01/13 08:55:43;;;;;;;;;24.25;19.00;;;;;2.50;69.83;102121.97;5020892;28;71689;-69
2024/01/13 08:58:08;;;;;;;;;31.50;18.50;;;;;2.53;69.51;102124.66;5024950;28;64835;-69
2024/01/13 09:00:34;;;;;;;;;31.50;20.50;;;;;2.55;69.14;102135.91;5031086;28;69235;-68
2024/01/13 09:02:59;;;;;;;;;27.25;20.50;;;;;2.55;69.40;102138.47;5036271;28;45301;-69
2024/01/13 09:05:24;;;;;;;;;24.33;16.67;;;;;2.55;69.30;102152.28;5040800;28;72404;-69
2024/01/13 09:07:50;;;;;;;;;22.67;17.00;;;;;2.55;69.22;102148.81;5028820;28;75721;-69
2024/01/13 09:10:15;;;;;;;;;28.75;17.50;;;;;2.59;69.10;102154.13;5039059;28;70430;-69
2024/01/13 09:12:40;;;;;;;;;31.75;21.00;;;;;2.61;68.99;102149.88;5038956;28;45388;-68
2024/01/13 09:15:06;;;;;;;;;39.00;23.50;;;;;2.63;68.95;102158.53;5039464;28;45425;-69
2024/01/13 09:17:32;;;;;;;;;33.50;18.25;;;;;2.65;69.05;102148.25;5034219;28;46073;-69
2024/01/13 09:19:57;;;;;;;;;26.25;16.75;;;;;2.71;68.82;102145.84;5026806;28;45479;-68
2024/01/13 09:22:22;;;;;;;;;29.75;17.25;;;;;2.74;68.84;102148.50;5033160;28;45484;-68
2024/01/13 09:24:48;;;;;;;;;24.75;17.75;;;;;2.74;68.78;102145.91;5033773;28;45474;-69
2024/01/13 09:27:16;;;;;;;;;26.00;18.00;;;;;2.72;68.71;102150.19;5033041;28;75131;-68
2024/01/13 09:29:41;;;;;;;;;31.50;18.25;;;;;2.71;68.56;102140.69;5039894;28;45293;-68
2024/01/13 09:32:07;;;;;;;;;28.00;19.25;;;;;2.69;68.56;102134.56;5020373;28;45312;-68
2024/01/13 09:34:32;;;;;;;;;36.25;22.25;;;;;2.69;69.22;102139.75;5038152;28;45297;-68
2024/01/13 09:36:58;;;;;;;;;51.75;37.00;;;;;2.71;68.88;102135.53;5037495;28;46522;-68
2024/01/13 09:39:24;;;;;;;;;36.25;31.25;;;;;2.74;68.74;102137.28;5028757;28;45543;-67
2024/01/13 09:41:49;;;;;;;;;29.50;22.75;;;;;2.73;68.81;102126.09;5032145;28;45309;-68
2024/01/13 09:44:24;;;;;;;;;26.25;17.75;;;;;2.77;68.71;102135.66;5042037;28;45574;-68
2024/01/13 09:46:51;;;;;;;;;30.50;21.25;;;;;2.80;68.62;102148.69;5032309;28;45499;-68
2024/01/13 09:49:17;;;;;;;;;27.25;18.50;;;;;2.85;68.55;102157.44;5030241;28;45715;-68
2024/01/13 09:51:44;;;;;;;;;27.75;20.50;;;;;2.89;68.33;102157.53;5034289;28;45466;-68
2024/01/13 09:54:12;;;;;;;;;33.25;20.50;;;;;2.91;68.38;102173.97;5040107;28;45479;-66
2024/01/13 09:56:47;;;;;;;;;28.50;18.25;;;;;2.91;68.00;102181.72;5021300;28;46262;-65
2024/01/13 09:59:14;;;;;;;;;29.25;18.00;;;;;2.86;67.73;102179.00;5032473;28;45821;-68
2024/01/13 10:01:40;;;;;;;;;31.75;20.25;;;;;2.79;67.77;102164.16;5035199;28;45278;-68
2024/01/13 10:04:06;;;;;;;;;25.00;19.75;;;;;2.79;68.14;102166.75;5021021;28;60367;-66
2024/01/13 10:06:33;;;;;;;;;21.00;14.00;;;;;2.80;67.94;102155.59;5026036;28;49003;-68
2024/01/13 10:08:58;;;;;;;;;23.00;13.75;;;;;2.82;67.84;102162.53;5033771;28;45711;-69
2024/01/13 10:11:24;;;;;;;;;22.50;18.00;;;;;2.81;67.63;102176.28;5018472;28;45359;-70
2024/01/13 10:14:03;;;;;;;;;33.75;15.25;;;;;2.78;67.52;102162.38;5016609;28;68140;-68
2024/01/13 10:16:29;;;;;;;;;30.00;22.00;;;;;2.73;67.37;102158.81;5027740;28;45666;-69
2024/01/13 10:18:59;;;;;;;;;26.25;19.25;;;;;2.69;67.56;102152.66;5030634;28;45297;-69
2024/01/13 10:21:25;;;;;;;;;30.00;18.25;;;;;2.68;67.69;102155.25;5008941;28;45496;-68
2024/01/13 10:23:53;;;;;;;;;31.50;18.25;;;;;2.71;67.84;102148.44;5025698;28;45483;-69
2024/01/13 10:26:19;;;;;;;;;27.75;18.00;;;;;2.78;67.57;102152.06;5032904;28;45433;-68
2024/01/13 10:28:44;;;;;;;;;26.25;18.50;;;;;2.81;67.61;102160.75;5006414;28;71988;-70
2024/01/13 10:31:09;;;;;;;;;27.25;20.50;;;;;2.83;67.53;102141.03;5025577;28;45461;-72
2024/01/13 10:33:35;;;;;;;;;30.33;18.00;;;;;2.85;67.16;102129.00;5012985;28;72199;-71
2024/01/13 10:36:00;;;;;;;;;25.75;20.50;;;;;2.90;67.46;102125.66;5021407;28;54156;-69
2024/01/13 10:38:26;;;;;;;;;25.50;21.00;;;;;2.95;67.25;102124.94;5024599;28;45455;-70
2024/01/13 10:40:52;;;;;;;;;26.25;15.50;;;;;2.98;66.90;102132.81;5022625;28;45471;-69
2024/01/13 10:43:18;;;;;;;;;26.50;16.00;;;;;3.01;66.94;102130.31;5018597;28;45591;-70
2024/01/13 10:45:46;;;;;;;;;22.50;16.00;;;;;3.04;66.91;102121.75;5020403;28;46454;-70
2024/01/13 10:48:27;;;;;;;;;27.00;18.50;;;;;3.07;66.73;102116.66;5019822;28;45452;-70
2024/01/13 10:50:55;;;;;;;;;32.00;16.25;;;;;3.10;66.70;102119.31;5016032;28;45465;-69
2024/01/13 10:53:28;;;;;;;;;22.25;17.75;;;;;3.14;66.72;102112.53;5030307;28;65832;-70
2024/01/13 10:55:54;;;;;;;;;24.25;18.50;;;;;3.13;66.15;102103.88;5031207;28;46865;-69
2024/01/13 10:58:20;;;;;;;;;25.25;19.25;;;;;3.10;65.68;102083.13;5016610;28;45503;-69
2024/01/13 11:00:46;;;;;;;;;29.75;19.75;;;;;3.08;65.66;102077.03;5015895;28;47313;-68
2024/01/13 11:03:15;;;;;;;;;27.25;18.00;;;;;3.08;65.81;102066.69;5021053;28;45579;-69
2024/01/13 11:05:40;;;;;;;;;20.50;12.50;;;;;3.11;65.73;102079.69;5037669;28;45500;-68
2024/01/13 11:08:06;;;;;;;;;25.50;17.75;;;;;3.15;65.85;102057.34;5028911;28;44743;-70
2024/01/13 11:10:35;;;;;;;;;26.75;20.25;;;;;3.20;65.83;102046.28;5030625;28;45342;-69